sensor_id;sensor_type;location;lat;lon;timestamp;P1;durP1;ratioP1;P2;durP2;ratioP2
18391;SDS011;9322;50.932;5.318;2022-08-21T00:00:41;8.60;;;3.23;;
18391;SDS011;9322;50.932;5.318;2022-08-21T00:03:08;7.60;;;3.53;;
18391;SDS011;9322;50.932;5.318;2022-08-21T00:05:36;7.27;;;3.27;;
18391;SDS011;9322;50.932;5.318;2022-08-21T00:08:04;11.20;;;3.90;;
18391;SDS011;9322;50.932;5.318;2022-08-21T00:10:30;9.07;;;3.30;;
18391;SDS011;9322;50.932;5.318;2022-08-21T00:12:55;8.60;;;3.50;;
18391;SDS011;9322;50.932;5.318;2022-08-21T00:15:26;8.93;;;3.30;;
18391;SDS011;9322;50.932;5.318;2022-08-21T00:17:54;7.93;;;3.83;;
18391;SDS011;9322;50.932;5.318;2022-08-21T00:20:20;11.27;;;3.80;;
18391;SDS011;9322;50.932;5.318;2022-08-21T00:22:48;12.63;;;4.43;;
18391;SDS011;9322;50.932;5.318;2022-08-21T00:25:14;12.67;;;3.70;;
18391;SDS011;9322;50.932;5.318;2022-08-21T00:27:41;13.73;;;3.87;;
18391;SDS011;9322;50.932;5.318;2022-08-21T00:30:07;10.90;;;4.07;;
18391;SDS011;9322;50.932;5.318;2022-08-21T00:32:36;7.40;;;3.47;;
18391;SDS011;9322;50.932;5.318;2022-08-21T00:35:04;6.90;;;3.57;;
18391;SDS011;9322;50.932;5.318;2022-08-21T00:37:32;9.80;;;3.67;;
18391;SDS011;9322;50.932;5.318;2022-08-21T00:39:58;13.13;;;4.00;;
18391;SDS011;9322;50.932;5.318;2022-08-21T00:42:24;10.70;;;3.50;;
18391;SDS011;9322;50.932;5.318;2022-08-21T00:44:50;11.83;;;3.87;;
18391;SDS011;9322;50.932;5.318;2022-08-21T00:47:16;8.10;;;3.67;;
18391;SDS011;9322;50.932;5.318;2022-08-21T00:49:43;8.73;;;3.90;;
18391;SDS011;9322;50.932;5.318;2022-08-21T00:52:11;11.50;;;3.67;;
18391;SDS011;9322;50.932;5.318;2022-08-21T00:54:42;12.07;;;4.30;;
18391;SDS011;9322;50.932;5.318;2022-08-21T00:57:16;10.40;;;3.80;;
18391;SDS011;9322;50.932;5.318;2022-08-21T00:59:46;8.60;;;4.13;;
18391;SDS011;9322;50.932;5.318;2022-08-21T01:02:15;11.23;;;4.10;;
18391;SDS011;9322;50.932;5.318;2022-08-21T01:04:42;9.93;;;3.73;;
18391;SDS011;9322;50.932;5.318;2022-08-21T01:07:08;11.00;;;4.17;;
18391;SDS011;9322;50.932;5.318;2022-08-21T01:09:34;9.80;;;4.07;;
18391;SDS011;9322;50.932;5.318;2022-08-21T01:12:01;8.27;;;3.50;;
18391;SDS011;9322;50.932;5.318;2022-08-21T01:14:28;10.43;;;3.83;;
18391;SDS011;9322;50.932;5.318;2022-08-21T01:16:55;19.33;;;4.00;;
18391;SDS011;9322;50.932;5.318;2022-08-21T01:19:22;11.23;;;3.40;;
18391;SDS011;9322;50.932;5.318;2022-08-21T01:21:49;12.83;;;3.87;;
18391;SDS011;9322;50.932;5.318;2022-08-21T01:24:15;6.73;;;3.57;;
18391;SDS011;9322;50.932;5.318;2022-08-21T01:26:42;10.40;;;3.80;;
18391;SDS011;9322;50.932;5.318;2022-08-21T01:29:16;12.70;;;3.83;;
18391;SDS011;9322;50.932;5.318;2022-08-21T01:31:51;11.40;;;4.30;;
18391;SDS011;9322;50.932;5.318;2022-08-21T01:34:17;9.83;;;3.63;;
18391;SDS011;9322;50.932;5.318;2022-08-21T01:36:44;11.43;;;3.50;;
18391;SDS011;9322;50.932;5.318;2022-08-21T01:39:11;10.77;;;3.30;;
18391;SDS011;9322;50.932;5.318;2022-08-21T01:41:37;11.67;;;3.60;;
18391;SDS011;9322;50.932;5.318;2022-08-21T01:44:03;8.10;;;3.60;;
18391;SDS011;9322;50.932;5.318;2022-08-21T01:46:29;11.93;;;3.53;;
18391;SDS011;9322;50.932;5.318;2022-08-21T01:48:54;17.73;;;3.73;;
18391;SDS011;9322;50.932;5.318;2022-08-21T01:51:20;10.53;;;3.50;;
18391;SDS011;9322;50.932;5.318;2022-08-21T01:53:46;13.03;;;3.73;;
18391;SDS011;9322;50.932;5.318;2022-08-21T01:56:13;12.70;;;3.53;;
18391;SDS011;9322;50.932;5.318;2022-08-21T01:58:40;8.97;;;3.97;;
18391;SDS011;9322;50.932;5.318;2022-08-21T02:01:09;9.97;;;4.00;;
18391;SDS011;9322;50.932;5.318;2022-08-21T02:03:35;13.13;;;4.00;;
18391;SDS011;9322;50.932;5.318;2022-08-21T02:06:02;11.07;;;4.00;;
18391;SDS011;9322;50.932;5.318;2022-08-21T02:08:29;8.30;;;3.67;;
18391;SDS011;9322;50.932;5.318;2022-08-21T02:10:55;11.07;;;3.90;;
18391;SDS011;9322;50.932;5.318;2022-08-21T02:13:20;13.33;;;4.23;;
18391;SDS011;9322;50.932;5.318;2022-08-21T02:15:46;10.30;;;4.00;;
18391;SDS011;9322;50.932;5.318;2022-08-21T02:18:13;8.23;;;4.20;;
18391;SDS011;9322;50.932;5.318;2022-08-21T02:20:41;9.80;;;4.40;;
18391;SDS011;9322;50.932;5.318;2022-08-21T02:23:10;13.87;;;4.20;;
18391;SDS011;9322;50.932;5.318;2022-08-21T02:25:36;10.50;;;4.30;;
18391;SDS011;9322;50.932;5.318;2022-08-21T02:28:04;11.77;;;4.33;;
18391;SDS011;9322;50.932;5.318;2022-08-21T02:30:33;11.07;;;3.90;;
18391;SDS011;9322;50.932;5.318;2022-08-21T02:33:05;12.33;;;4.23;;
18391;SDS011;9322;50.932;5.318;2022-08-21T02:35:32;10.23;;;4.10;;
18391;SDS011;9322;50.932;5.318;2022-08-21T02:37:59;12.90;;;3.77;;
18391;SDS011;9322;50.932;5.318;2022-08-21T02:40:29;9.03;;;4.53;;
18391;SDS011;9322;50.932;5.318;2022-08-21T02:42:57;15.77;;;4.67;;
18391;SDS011;9322;50.932;5.318;2022-08-21T02:45:24;11.60;;;4.50;;
18391;SDS011;9322;50.932;5.318;2022-08-21T02:47:51;12.80;;;4.53;;
18391;SDS011;9322;50.932;5.318;2022-08-21T02:50:26;12.43;;;3.87;;
18391;SDS011;9322;50.932;5.318;2022-08-21T02:52:57;15.80;;;4.37;;
18391;SDS011;9322;50.932;5.318;2022-08-21T02:55:24;14.63;;;4.17;;
18391;SDS011;9322;50.932;5.318;2022-08-21T02:57:51;12.63;;;4.13;;
18391;SDS011;9322;50.932;5.318;2022-08-21T03:00:19;13.30;;;3.97;;
18391;SDS011;9322;50.932;5.318;2022-08-21T03:02:46;11.50;;;3.73;;
18391;SDS011;9322;50.932;5.318;2022-08-21T03:05:12;6.97;;;3.67;;
18391;SDS011;9322;50.932;5.318;2022-08-21T03:07:40;12.53;;;4.20;;
18391;SDS011;9322;50.932;5.318;2022-08-21T03:10:06;10.40;;;3.87;;
18391;SDS011;9322;50.932;5.318;2022-08-21T03:12:33;10.27;;;3.93;;
18391;SDS011;9322;50.932;5.318;2022-08-21T03:15:01;9.73;;;4.00;;
18391;SDS011;9322;50.932;5.318;2022-08-21T03:17:31;11.83;;;3.73;;
18391;SDS011;9322;50.932;5.318;2022-08-21T03:19:58;10.00;;;3.63;;
18391;SDS011;9322;50.932;5.318;2022-08-21T03:22:24;11.47;;;4.13;;
18391;SDS011;9322;50.932;5.318;2022-08-21T03:24:50;11.37;;;3.83;;
18391;SDS011;9322;50.932;5.318;2022-08-21T03:27:17;11.77;;;4.43;;
18391;SDS011;9322;50.932;5.318;2022-08-21T03:29:43;11.73;;;4.30;;
18391;SDS011;9322;50.932;5.318;2022-08-21T03:32:08;14.17;;;3.90;;
18391;SDS011;9322;50.932;5.318;2022-08-21T03:34:37;11.23;;;3.97;;
18391;SDS011;9322;50.932;5.318;2022-08-21T03:37:04;11.13;;;3.83;;
18391;SDS011;9322;50.932;5.318;2022-08-21T03:39:31;9.67;;;3.67;;
18391;SDS011;9322;50.932;5.318;2022-08-21T03:41:57;13.73;;;3.60;;
18391;SDS011;9322;50.932;5.318;2022-08-21T03:44:25;18.37;;;4.03;;
18391;SDS011;9322;50.932;5.318;2022-08-21T03:46:54;13.53;;;3.70;;
18391;SDS011;9322;50.932;5.318;2022-08-21T03:49:20;13.63;;;3.33;;
18391;SDS011;9322;50.932;5.318;2022-08-21T03:51:46;11.87;;;3.87;;
18391;SDS011;9322;50.932;5.318;2022-08-21T03:54:12;14.73;;;3.50;;
18391;SDS011;9322;50.932;5.318;2022-08-21T03:56:38;10.30;;;3.40;;
18391;SDS011;9322;50.932;5.318;2022-08-21T03:59:04;10.60;;;3.40;;
18391;SDS011;9322;50.932;5.318;2022-08-21T04:01:30;14.13;;;3.30;;
18391;SDS011;9322;50.932;5.318;2022-08-21T04:03:57;13.77;;;3.50;;
18391;SDS011;9322;50.932;5.318;2022-08-21T04:06:22;14.10;;;3.60;;
18391;SDS011;9322;50.932;5.318;2022-08-21T04:08:48;9.63;;;3.10;;
18391;SDS011;9322;50.932;5.318;2022-08-21T04:11:14;11.43;;;3.47;;
18391;SDS011;9322;50.932;5.318;2022-08-21T04:13:40;10.97;;;3.20;;
18391;SDS011;9322;50.932;5.318;2022-08-21T04:16:06;14.17;;;3.57;;
18391;SDS011;9322;50.932;5.318;2022-08-21T04:18:32;13.70;;;3.50;;
18391;SDS011;9322;50.932;5.318;2022-08-21T04:20:58;7.50;;;3.10;;
18391;SDS011;9322;50.932;5.318;2022-08-21T04:23:24;11.93;;;3.27;;
18391;SDS011;9322;50.932;5.318;2022-08-21T04:25:54;10.63;;;3.33;;
18391;SDS011;9322;50.932;5.318;2022-08-21T04:28:21;12.00;;;3.40;;
18391;SDS011;9322;50.932;5.318;2022-08-21T04:30:48;10.33;;;3.47;;
18391;SDS011;9322;50.932;5.318;2022-08-21T04:33:15;7.97;;;3.23;;
18391;SDS011;9322;50.932;5.318;2022-08-21T04:35:41;12.57;;;3.53;;
18391;SDS011;9322;50.932;5.318;2022-08-21T04:38:07;12.07;;;3.50;;
18391;SDS011;9322;50.932;5.318;2022-08-21T04:40:33;11.43;;;3.57;;
18391;SDS011;9322;50.932;5.318;2022-08-21T04:43:01;15.57;;;4.03;;
18391;SDS011;9322;50.932;5.318;2022-08-21T04:45:31;12.13;;;3.17;;
18391;SDS011;9322;50.932;5.318;2022-08-21T04:47:58;12.47;;;3.97;;
18391;SDS011;9322;50.932;5.318;2022-08-21T04:50:38;9.67;;;3.60;;
18391;SDS011;9322;50.932;5.318;2022-08-21T04:53:20;8.83;;;3.53;;
18391;SDS011;9322;50.932;5.318;2022-08-21T04:55:56;10.97;;;3.40;;
18391;SDS011;9322;50.932;5.318;2022-08-21T04:58:45;10.40;;;2.77;;
18391;SDS011;9322;50.932;5.318;2022-08-21T05:01:15;9.63;;;3.47;;
18391;SDS011;9322;50.932;5.318;2022-08-21T05:03:45;13.67;;;3.60;;
18391;SDS011;9322;50.932;5.318;2022-08-21T05:06:14;10.03;;;3.70;;
18391;SDS011;9322;50.932;5.318;2022-08-21T05:08:41;11.27;;;2.80;;
18391;SDS011;9322;50.932;5.318;2022-08-21T05:11:10;9.43;;;3.03;;
18391;SDS011;9322;50.932;5.318;2022-08-21T05:13:36;9.60;;;2.90;;
18391;SDS011;9322;50.932;5.318;2022-08-21T05:16:02;12.57;;;3.07;;
18391;SDS011;9322;50.932;5.318;2022-08-21T05:18:28;7.60;;;3.20;;
18391;SDS011;9322;50.932;5.318;2022-08-21T05:20:54;11.07;;;3.00;;
18391;SDS011;9322;50.932;5.318;2022-08-21T05:23:20;12.63;;;3.20;;
18391;SDS011;9322;50.932;5.318;2022-08-21T05:25:46;4.97;;;2.43;;
18391;SDS011;9322;50.932;5.318;2022-08-21T05:28:11;11.33;;;2.50;;
18391;SDS011;9322;50.932;5.318;2022-08-21T05:30:37;6.97;;;2.87;;
18391;SDS011;9322;50.932;5.318;2022-08-21T05:33:04;7.80;;;2.10;;
18391;SDS011;9322;50.932;5.318;2022-08-21T05:35:31;7.63;;;2.10;;
18391;SDS011;9322;50.932;5.318;2022-08-21T05:37:57;8.30;;;2.10;;
18391;SDS011;9322;50.932;5.318;2022-08-21T05:40:24;7.00;;;2.00;;
18391;SDS011;9322;50.932;5.318;2022-08-21T05:42:50;8.80;;;2.00;;
18391;SDS011;9322;50.932;5.318;2022-08-21T05:45:17;7.03;;;1.60;;
18391;SDS011;9322;50.932;5.318;2022-08-21T05:47:43;8.98;;;2.10;;
18391;SDS011;9322;50.932;5.318;2022-08-21T05:50:09;11.65;;;2.38;;
18391;SDS011;9322;50.932;5.318;2022-08-21T05:52:34;7.07;;;2.20;;
18391;SDS011;9322;50.932;5.318;2022-08-21T05:55:00;7.90;;;2.10;;
18391;SDS011;9322;50.932;5.318;2022-08-21T05:57:26;9.32;;;2.00;;
18391;SDS011;9322;50.932;5.318;2022-08-21T05:59:52;8.70;;;2.00;;
18391;SDS011;9322;50.932;5.318;2022-08-21T06:02:18;7.32;;;2.28;;
18391;SDS011;9322;50.932;5.318;2022-08-21T06:04:44;9.90;;;2.28;;
18391;SDS011;9322;50.932;5.318;2022-08-21T06:07:10;10.35;;;2.33;;
18391;SDS011;9322;50.932;5.318;2022-08-21T06:09:36;9.27;;;2.03;;
18391;SDS011;9322;50.932;5.318;2022-08-21T06:12:03;7.50;;;2.25;;
18391;SDS011;9322;50.932;5.318;2022-08-21T06:14:30;7.38;;;2.35;;
18391;SDS011;9322;50.932;5.318;2022-08-21T06:17:01;10.73;;;2.40;;
18391;SDS011;9322;50.932;5.318;2022-08-21T06:19:28;11.00;;;2.55;;
18391;SDS011;9322;50.932;5.318;2022-08-21T06:21:54;8.23;;;2.20;;
18391;SDS011;9322;50.932;5.318;2022-08-21T06:24:19;8.27;;;2.13;;
18391;SDS011;9322;50.932;5.318;2022-08-21T06:26:45;7.13;;;2.30;;
18391;SDS011;9322;50.932;5.318;2022-08-21T06:29:12;11.60;;;2.85;;
18391;SDS011;9322;50.932;5.318;2022-08-21T06:31:41;7.50;;;2.00;;
18391;SDS011;9322;50.932;5.318;2022-08-21T06:34:07;6.43;;;2.30;;
18391;SDS011;9322;50.932;5.318;2022-08-21T06:36:33;7.68;;;2.40;;
18391;SDS011;9322;50.932;5.318;2022-08-21T06:38:58;12.10;;;2.42;;
18391;SDS011;9322;50.932;5.318;2022-08-21T06:41:25;6.25;;;2.60;;
18391;SDS011;9322;50.932;5.318;2022-08-21T06:43:50;8.05;;;2.58;;
18391;SDS011;9322;50.932;5.318;2022-08-21T06:46:16;10.77;;;2.50;;
18391;SDS011;9322;50.932;5.318;2022-08-21T06:48:42;10.13;;;2.40;;
18391;SDS011;9322;50.932;5.318;2022-08-21T06:51:07;6.78;;;2.30;;
18391;SDS011;9322;50.932;5.318;2022-08-21T06:53:33;7.30;;;2.20;;
18391;SDS011;9322;50.932;5.318;2022-08-21T06:55:59;5.60;;;2.00;;
18391;SDS011;9322;50.932;5.318;2022-08-21T06:58:25;11.05;;;2.17;;
18391;SDS011;9322;50.932;5.318;2022-08-21T07:00:50;10.27;;;2.10;;
18391;SDS011;9322;50.932;5.318;2022-08-21T07:03:17;6.15;;;2.17;;
18391;SDS011;9322;50.932;5.318;2022-08-21T07:05:48;8.15;;;2.00;;
18391;SDS011;9322;50.932;5.318;2022-08-21T07:08:14;8.73;;;1.85;;
18391;SDS011;9322;50.932;5.318;2022-08-21T07:10:40;8.30;;;2.08;;
18391;SDS011;9322;50.932;5.318;2022-08-21T07:13:05;6.95;;;1.88;;
18391;SDS011;9322;50.932;5.318;2022-08-21T07:15:31;8.15;;;2.22;;
18391;SDS011;9322;50.932;5.318;2022-08-21T07:18:00;6.45;;;2.15;;
18391;SDS011;9322;50.932;5.318;2022-08-21T07:20:26;7.47;;;2.03;;
18391;SDS011;9322;50.932;5.318;2022-08-21T07:22:53;6.80;;;2.10;;
18391;SDS011;9322;50.932;5.318;2022-08-21T07:25:19;4.97;;;1.90;;
18391;SDS011;9322;50.932;5.318;2022-08-21T07:27:45;6.65;;;1.77;;
18391;SDS011;9322;50.932;5.318;2022-08-21T07:30:11;10.18;;;2.03;;
18391;SDS011;9322;50.932;5.318;2022-08-21T07:32:37;5.40;;;1.88;;
18391;SDS011;9322;50.932;5.318;2022-08-21T07:35:03;8.77;;;2.15;;
18391;SDS011;9322;50.932;5.318;2022-08-21T07:37:29;7.22;;;1.98;;
18391;SDS011;9322;50.932;5.318;2022-08-21T07:39:54;7.28;;;1.92;;
18391;SDS011;9322;50.932;5.318;2022-08-21T07:42:21;6.38;;;2.13;;
18391;SDS011;9322;50.932;5.318;2022-08-21T07:44:46;6.55;;;1.80;;
18391;SDS011;9322;50.932;5.318;2022-08-21T07:47:12;8.80;;;2.00;;
18391;SDS011;9322;50.932;5.318;2022-08-21T07:49:38;6.63;;;2.00;;
18391;SDS011;9322;50.932;5.318;2022-08-21T07:52:04;7.50;;;2.40;;
18391;SDS011;9322;50.932;5.318;2022-08-21T07:54:30;11.43;;;2.40;;
18391;SDS011;9322;50.932;5.318;2022-08-21T07:56:55;12.23;;;2.30;;
18391;SDS011;9322;50.932;5.318;2022-08-21T07:59:21;8.07;;;2.10;;
18391;SDS011;9322;50.932;5.318;2022-08-21T08:01:47;12.93;;;2.38;;
18391;SDS011;9322;50.932;5.318;2022-08-21T08:04:13;7.75;;;1.80;;
18391;SDS011;9322;50.932;5.318;2022-08-21T08:06:40;7.80;;;2.08;;
18391;SDS011;9322;50.932;5.318;2022-08-21T08:09:06;7.72;;;2.03;;
18391;SDS011;9322;50.932;5.318;2022-08-21T08:11:31;6.40;;;2.05;;
18391;SDS011;9322;50.932;5.318;2022-08-21T08:13:58;5.32;;;1.95;;
18391;SDS011;9322;50.932;5.318;2022-08-21T08:16:24;8.45;;;1.90;;
18391;SDS011;9322;50.932;5.318;2022-08-21T08:18:50;11.32;;;2.13;;
18391;SDS011;9322;50.932;5.318;2022-08-21T08:21:16;9.00;;;1.95;;
18391;SDS011;9322;50.932;5.318;2022-08-21T08:23:45;7.95;;;2.20;;
18391;SDS011;9322;50.932;5.318;2022-08-21T08:26:11;9.10;;;2.22;;
18391;SDS011;9322;50.932;5.318;2022-08-21T08:28:37;7.13;;;2.00;;
18391;SDS011;9322;50.932;5.318;2022-08-21T08:31:03;7.50;;;1.92;;
18391;SDS011;9322;50.932;5.318;2022-08-21T08:33:29;5.38;;;1.48;;
18391;SDS011;9322;50.932;5.318;2022-08-21T08:35:55;6.30;;;1.70;;
18391;SDS011;9322;50.932;5.318;2022-08-21T08:38:22;7.63;;;1.75;;
18391;SDS011;9322;50.932;5.318;2022-08-21T08:43:20;8.18;;;1.90;;
18391;SDS011;9322;50.932;5.318;2022-08-21T08:45:47;4.72;;;1.48;;
18391;SDS011;9322;50.932;5.318;2022-08-21T08:48:31;5.68;;;1.60;;
18391;SDS011;9322;50.932;5.318;2022-08-21T08:51:08;4.45;;;1.33;;
18391;SDS011;9322;50.932;5.318;2022-08-21T08:54:03;4.78;;;1.58;;
18391;SDS011;9322;50.932;5.318;2022-08-21T08:56:33;5.25;;;1.30;;
18391;SDS011;9322;50.932;5.318;2022-08-21T08:59:02;4.97;;;1.80;;
18391;SDS011;9322;50.932;5.318;2022-08-21T09:01:33;7.85;;;2.03;;
18391;SDS011;9322;50.932;5.318;2022-08-21T09:03:59;4.55;;;1.52;;
18391;SDS011;9322;50.932;5.318;2022-08-21T09:11:56;11.95;;;2.10;;
18391;SDS011;9322;50.932;5.318;2022-08-21T09:25:31;2.33;;;1.13;;
18391;SDS011;9322;50.932;5.318;2022-08-21T09:28:07;9.90;;;1.60;;
18391;SDS011;9322;50.932;5.318;2022-08-21T09:30:37;3.00;;;1.25;;
18391;SDS011;9322;50.932;5.318;2022-08-21T09:33:05;3.97;;;1.17;;
18391;SDS011;9322;50.932;5.318;2022-08-21T09:35:31;7.88;;;1.60;;
18391;SDS011;9322;50.932;5.318;2022-08-21T09:38:01;4.75;;;1.15;;
18391;SDS011;9322;50.932;5.318;2022-08-21T09:40:38;5.35;;;1.33;;
18391;SDS011;9322;50.932;5.318;2022-08-21T09:45:37;4.40;;;1.30;;
18391;SDS011;9322;50.932;5.318;2022-08-21T09:48:11;6.40;;;1.33;;
18391;SDS011;9322;50.932;5.318;2022-08-21T09:50:37;8.60;;;1.38;;
18391;SDS011;9322;50.932;5.318;2022-08-21T09:53:04;4.35;;;1.20;;
18391;SDS011;9322;50.932;5.318;2022-08-21T09:55:51;3.58;;;1.10;;
18391;SDS011;9322;50.932;5.318;2022-08-21T09:58:37;4.43;;;1.50;;
18391;SDS011;9322;50.932;5.318;2022-08-21T10:01:06;6.32;;;1.40;;
18391;SDS011;9322;50.932;5.318;2022-08-21T10:03:45;4.55;;;1.15;;
18391;SDS011;9322;50.932;5.318;2022-08-21T10:06:20;4.25;;;1.30;;
18391;SDS011;9322;50.932;5.318;2022-08-21T10:09:02;3.10;;;1.30;;
18391;SDS011;9322;50.932;5.318;2022-08-21T10:11:42;5.93;;;1.50;;
18391;SDS011;9322;50.932;5.318;2022-08-21T10:27:57;6.97;;;1.60;;
18391;SDS011;9322;50.932;5.318;2022-08-21T10:34:59;6.70;;;1.23;;
18391;SDS011;9322;50.932;5.318;2022-08-21T10:39:35;4.47;;;1.10;;
18391;SDS011;9322;50.932;5.318;2022-08-21T10:48:01;5.85;;;1.60;;
18391;SDS011;9322;50.932;5.318;2022-08-21T10:50:31;8.05;;;1.60;;
18391;SDS011;9322;50.932;5.318;2022-08-21T10:58:40;6.70;;;1.45;;
18391;SDS011;9322;50.932;5.318;2022-08-21T11:01:20;7.10;;;1.88;;
18391;SDS011;9322;50.932;5.318;2022-08-21T11:06:37;4.47;;;1.45;;
18391;SDS011;9322;50.932;5.318;2022-08-21T11:09:17;3.95;;;1.40;;
18391;SDS011;9322;50.932;5.318;2022-08-21T11:12:29;7.07;;;1.50;;
18391;SDS011;9322;50.932;5.318;2022-08-21T11:15:02;7.65;;;1.70;;
18391;SDS011;9322;50.932;5.318;2022-08-21T11:17:52;7.18;;;1.67;;
18391;SDS011;9322;50.932;5.318;2022-08-21T11:23:38;5.30;;;1.60;;
18391;SDS011;9322;50.932;5.318;2022-08-21T11:26:27;10.68;;;1.95;;
18391;SDS011;9322;50.932;5.318;2022-08-21T11:32:20;8.50;;;1.77;;
18391;SDS011;9322;50.932;5.318;2022-08-21T11:43:38;7.57;;;1.50;;
18391;SDS011;9322;50.932;5.318;2022-08-21T11:49:02;7.63;;;1.83;;
18391;SDS011;9322;50.932;5.318;2022-08-21T11:51:44;7.32;;;1.80;;
18391;SDS011;9322;50.932;5.318;2022-08-21T11:57:03;6.30;;;1.70;;
18391;SDS011;9322;50.932;5.318;2022-08-21T12:02:45;7.80;;;1.73;;
18391;SDS011;9322;50.932;5.318;2022-08-21T12:05:27;7.18;;;1.88;;
18391;SDS011;9322;50.932;5.318;2022-08-21T12:08:12;6.65;;;1.70;;
18391;SDS011;9322;50.932;5.318;2022-08-21T12:10:41;8.18;;;1.50;;
18391;SDS011;9322;50.932;5.318;2022-08-21T12:13:20;9.15;;;1.85;;
18391;SDS011;9322;50.932;5.318;2022-08-21T12:18:38;8.52;;;1.80;;
18391;SDS011;9322;50.932;5.318;2022-08-21T12:23:59;7.68;;;1.73;;
18391;SDS011;9322;50.932;5.318;2022-08-21T12:29:12;8.50;;;1.70;;
18391;SDS011;9322;50.932;5.318;2022-08-21T12:31:48;9.55;;;2.17;;
18391;SDS011;9322;50.932;5.318;2022-08-21T12:34:26;8.75;;;1.88;;
18391;SDS011;9322;50.932;5.318;2022-08-21T12:37:02;8.07;;;1.75;;
18391;SDS011;9322;50.932;5.318;2022-08-21T12:39:32;13.43;;;2.08;;
18391;SDS011;9322;50.932;5.318;2022-08-21T12:47:04;10.63;;;1.85;;
18391;SDS011;9322;50.932;5.318;2022-08-21T12:49:41;8.63;;;1.70;;
18391;SDS011;9322;50.932;5.318;2022-08-21T12:52:23;9.70;;;1.70;;
18391;SDS011;9322;50.932;5.318;2022-08-21T12:55:14;9.95;;;2.08;;
18391;SDS011;9322;50.932;5.318;2022-08-21T12:57:43;7.95;;;1.80;;
18391;SDS011;9322;50.932;5.318;2022-08-21T13:00:10;10.55;;;1.75;;
18391;SDS011;9322;50.932;5.318;2022-08-21T13:02:39;8.00;;;1.88;;
18391;SDS011;9322;50.932;5.318;2022-08-21T13:05:12;6.05;;;1.60;;
18391;SDS011;9322;50.932;5.318;2022-08-21T13:07:44;6.40;;;1.83;;
18391;SDS011;9322;50.932;5.318;2022-08-21T13:12:45;6.43;;;1.70;;
18391;SDS011;9322;50.932;5.318;2022-08-21T13:15:12;8.90;;;2.00;;
18391;SDS011;9322;50.932;5.318;2022-08-21T13:17:47;8.18;;;1.65;;
18391;SDS011;9322;50.932;5.318;2022-08-21T13:20:24;9.77;;;1.65;;
18391;SDS011;9322;50.932;5.318;2022-08-21T13:22:52;6.25;;;1.65;;
18391;SDS011;9322;50.932;5.318;2022-08-21T13:25:18;9.57;;;1.80;;
18391;SDS011;9322;50.932;5.318;2022-08-21T13:27:56;6.20;;;1.65;;
18391;SDS011;9322;50.932;5.318;2022-08-21T13:30:34;8.23;;;1.88;;
18391;SDS011;9322;50.932;5.318;2022-08-21T13:33:04;10.02;;;2.28;;
18391;SDS011;9322;50.932;5.318;2022-08-21T13:35:45;8.90;;;1.70;;
18391;SDS011;9322;50.932;5.318;2022-08-21T13:38:21;10.38;;;1.90;;
18391;SDS011;9322;50.932;5.318;2022-08-21T13:40:58;8.55;;;1.90;;
18391;SDS011;9322;50.932;5.318;2022-08-21T13:43:32;8.15;;;1.90;;
18391;SDS011;9322;50.932;5.318;2022-08-21T13:45:59;5.97;;;1.75;;
18391;SDS011;9322;50.932;5.318;2022-08-21T13:48:27;12.70;;;2.03;;
18391;SDS011;9322;50.932;5.318;2022-08-21T13:50:56;7.93;;;2.00;;
18391;SDS011;9322;50.932;5.318;2022-08-21T13:55:54;10.05;;;1.67;;
18391;SDS011;9322;50.932;5.318;2022-08-21T13:58:31;9.90;;;1.85;;
18391;SDS011;9322;50.932;5.318;2022-08-21T14:01:21;8.13;;;2.08;;
18391;SDS011;9322;50.932;5.318;2022-08-21T14:03:51;9.20;;;1.73;;
18391;SDS011;9322;50.932;5.318;2022-08-21T14:06:22;7.35;;;2.20;;
18391;SDS011;9322;50.932;5.318;2022-08-21T14:09:13;6.53;;;1.80;;
18391;SDS011;9322;50.932;5.318;2022-08-21T14:11:38;9.70;;;2.05;;
18391;SDS011;9322;50.932;5.318;2022-08-21T14:14:25;10.25;;;1.70;;
18391;SDS011;9322;50.932;5.318;2022-08-21T14:17:03;10.15;;;2.20;;
18391;SDS011;9322;50.932;5.318;2022-08-21T14:22:27;7.20;;;1.80;;
18391;SDS011;9322;50.932;5.318;2022-08-21T14:25:06;9.65;;;1.77;;
18391;SDS011;9322;50.932;5.318;2022-08-21T14:27:39;8.60;;;2.00;;
18391;SDS011;9322;50.932;5.318;2022-08-21T14:30:21;7.03;;;1.60;;
18391;SDS011;9322;50.932;5.318;2022-08-21T14:32:59;9.90;;;1.98;;
18391;SDS011;9322;50.932;5.318;2022-08-21T14:35:26;6.78;;;1.85;;
18391;SDS011;9322;50.932;5.318;2022-08-21T14:37:52;5.97;;;1.65;;
18391;SDS011;9322;50.932;5.318;2022-08-21T14:40:19;6.68;;;1.88;;
18391;SDS011;9322;50.932;5.318;2022-08-21T14:42:47;8.85;;;1.98;;
18391;SDS011;9322;50.932;5.318;2022-08-21T14:45:16;7.32;;;1.88;;
18391;SDS011;9322;50.932;5.318;2022-08-21T14:47:48;6.97;;;1.70;;
18391;SDS011;9322;50.932;5.318;2022-08-21T14:50:14;6.22;;;1.92;;
18391;SDS011;9322;50.932;5.318;2022-08-21T14:52:40;7.07;;;1.67;;
18391;SDS011;9322;50.932;5.318;2022-08-21T14:55:08;8.13;;;1.50;;
18391;SDS011;9322;50.932;5.318;2022-08-21T14:57:39;10.43;;;1.75;;
18391;SDS011;9322;50.932;5.318;2022-08-21T15:00:08;4.68;;;1.63;;
18391;SDS011;9322;50.932;5.318;2022-08-21T15:02:35;7.07;;;1.73;;
18391;SDS011;9322;50.932;5.318;2022-08-21T15:05:01;7.55;;;1.70;;
18391;SDS011;9322;50.932;5.318;2022-08-21T15:07:26;9.88;;;1.85;;
18391;SDS011;9322;50.932;5.318;2022-08-21T15:09:52;10.23;;;1.67;;
18391;SDS011;9322;50.932;5.318;2022-08-21T15:12:18;9.73;;;1.60;;
18391;SDS011;9322;50.932;5.318;2022-08-21T15:14:43;8.88;;;1.80;;
18391;SDS011;9322;50.932;5.318;2022-08-21T15:17:09;10.38;;;2.03;;
18391;SDS011;9322;50.932;5.318;2022-08-21T15:19:36;13.88;;;2.10;;
18391;SDS011;9322;50.932;5.318;2022-08-21T15:22:02;7.97;;;1.70;;
18391;SDS011;9322;50.932;5.318;2022-08-21T15:24:29;6.72;;;1.65;;
18391;SDS011;9322;50.932;5.318;2022-08-21T15:26:55;7.75;;;1.70;;
18391;SDS011;9322;50.932;5.318;2022-08-21T15:29:21;7.15;;;1.73;;
18391;SDS011;9322;50.932;5.318;2022-08-21T15:31:54;9.00;;;1.88;;
18391;SDS011;9322;50.932;5.318;2022-08-21T15:34:22;5.25;;;1.52;;
18391;SDS011;9322;50.932;5.318;2022-08-21T15:36:49;9.85;;;1.80;;
18391;SDS011;9322;50.932;5.318;2022-08-21T15:39:15;9.20;;;1.67;;
18391;SDS011;9322;50.932;5.318;2022-08-21T15:41:41;8.90;;;1.88;;
18391;SDS011;9322;50.932;5.318;2022-08-21T15:44:08;7.93;;;1.88;;
18391;SDS011;9322;50.932;5.318;2022-08-21T15:46:36;7.53;;;1.75;;
18391;SDS011;9322;50.932;5.318;2022-08-21T15:49:02;7.80;;;1.50;;
18391;SDS011;9322;50.932;5.318;2022-08-21T15:51:28;5.97;;;1.50;;
18391;SDS011;9322;50.932;5.318;2022-08-21T15:53:53;12.32;;;1.80;;
18391;SDS011;9322;50.932;5.318;2022-08-21T15:56:23;7.03;;;1.70;;
18391;SDS011;9322;50.932;5.318;2022-08-21T15:58:51;7.35;;;1.35;;
18391;SDS011;9322;50.932;5.318;2022-08-21T16:01:19;10.30;;;1.90;;
18391;SDS011;9322;50.932;5.318;2022-08-21T16:03:47;8.90;;;1.90;;
18391;SDS011;9322;50.932;5.318;2022-08-21T16:06:15;6.55;;;1.70;;
18391;SDS011;9322;50.932;5.318;2022-08-21T16:08:41;11.38;;;2.05;;
18391;SDS011;9322;50.932;5.318;2022-08-21T16:11:06;8.90;;;1.75;;
18391;SDS011;9322;50.932;5.318;2022-08-21T16:13:34;10.15;;;2.15;;
18391;SDS011;9322;50.932;5.318;2022-08-21T16:16:04;12.60;;;2.03;;
18391;SDS011;9322;50.932;5.318;2022-08-21T16:18:30;9.95;;;1.60;;
18391;SDS011;9322;50.932;5.318;2022-08-21T16:20:56;10.30;;;1.65;;
18391;SDS011;9322;50.932;5.318;2022-08-21T16:23:22;7.22;;;1.50;;
18391;SDS011;9322;50.932;5.318;2022-08-21T16:25:48;9.52;;;2.05;;
18391;SDS011;9322;50.932;5.318;2022-08-21T16:28:15;6.10;;;1.60;;
18391;SDS011;9322;50.932;5.318;2022-08-21T16:30:42;8.70;;;2.00;;
18391;SDS011;9322;50.932;5.318;2022-08-21T16:33:48;8.65;;;1.80;;
18391;SDS011;9322;50.932;5.318;2022-08-21T16:36:06;6.28;;;1.77;;
18391;SDS011;9322;50.932;5.318;2022-08-21T16:38:32;7.80;;;1.85;;
18391;SDS011;9322;50.932;5.318;2022-08-21T16:41:00;15.77;;;2.05;;
18391;SDS011;9322;50.932;5.318;2022-08-21T16:43:27;10.15;;;1.90;;
18391;SDS011;9322;50.932;5.318;2022-08-21T16:45:55;7.13;;;1.55;;
18391;SDS011;9322;50.932;5.318;2022-08-21T16:48:22;8.57;;;1.85;;